^^
Station Historical Data
Daily Summary for February 17, 2021 Units:  English    Metric   Both
Daily Weekly Monthly Yearly
  High: Low: Average:
Temperature: 17.6 °F -6.3 °F 5.2 °F
Dew Point: 10.6 °F -10.6 °F -0.3 °F
Humidity: 83% 66% 78%
Wind Speed: 5mph 0mph 1.4mph
Wind Gust: 6mph - -
Wind- - SSW
Pressure: 30.50 in 30.24 in -
Precipitation: 0.00 in    
 
 
Tabular Data for February 17, 2021
Time Temperature Dew Point Pressure Wind Wind Speed Wind Gust Humidity Rainfall Rate (Hourly) solar
00:00 -1.6 °F -7.6 °F 30.24 in SW 2 mph 2 mph 75% 0.00 in 0 W/m2
00:05 -1.8 °F -7.5 °F 30.25 in SW 2 mph 3 mph 76% 0.00 in 0 W/m2
00:10 -2.1 °F -7.8 °F 30.25 in SW 2 mph 2 mph 76% 0.00 in 0 W/m2
00:15 -2.3 °F -8 °F 30.25 in SW 2 mph 2 mph 76% 0.00 in 0 W/m2
00:20 -2.8 °F -8.5 °F 30.26 in WSW 2 mph 3 mph 76% 0.00 in 0 W/m2
00:25 -3 °F -8.7 °F 30.26 in WSW 2 mph 3 mph 76% 0.00 in 0 W/m2
00:30 -3.4 °F -8.8 °F 30.26 in WSW 2 mph 2 mph 77% 0.00 in 0 W/m2
00:35 -3.6 °F -9 °F 30.27 in SW 3 mph 4 mph 77% 0.00 in 0 W/m2
00:40 -3.7 °F -9.1 °F 30.27 in SW 3 mph 3 mph 77% 0.00 in 0 W/m2
00:45 -4 °F -9.4 °F 30.28 in SW 2 mph 3 mph 77% 0.00 in 0 W/m2
00:50 -4.4 °F -9.8 °F 30.28 in SW 1 mph 1 mph 77% 0.00 in 0 W/m2
00:55 -4.5 °F -9.6 °F 30.28 in SW 1 mph 1 mph 78% 0.00 in 0 W/m2
01:00 -4.8 °F -10.2 °F 30.28 in SW 1 mph 1 mph 77% 0.00 in 0 W/m2
01:05 -5 °F -10.1 °F 30.28 in SW 1 mph 1 mph 78% 0.00 in 0 W/m2
01:10 -5.1 °F -10.2 °F 30.28 in Calm     78% 0.00 in 0 W/m2
01:15 -5.2 °F -10.3 °F 30.28 in Calm     78% 0.00 in 0 W/m2
01:20 -5.3 °F -10.4 °F 30.28 in Calm   1 mph 78% 0.00 in 0 W/m2
01:25 -5.3 °F -10.1 °F 30.28 in SW 1 mph 1 mph 79% 0.00 in 0 W/m2
01:30 -5.3 °F -10.1 °F 30.28 in SW 1 mph 2 mph 79% 0.00 in 0 W/m2
01:35 -5.3 °F -10.1 °F 30.28 in SW 1 mph 2 mph 79% 0.00 in 0 W/m2
01:40 -5.2 °F -10 °F 30.28 in SW 1 mph 1 mph 79% 0.00 in 0 W/m2
01:45 -5.2 °F -9.8 °F 30.28 in SW 1 mph 1 mph 80% 0.00 in 0 W/m2
01:50 -5.1 °F -9.7 °F 30.28 in SW 2 mph 3 mph 80% 0.00 in 0 W/m2
01:55 -5.1 °F -9.7 °F 30.28 in SW 2 mph 3 mph 80% 0.00 in 0 W/m2
02:00 -5.2 °F -9.8 °F 30.29 in SW 1 mph 1 mph 80% 0.00 in 0 W/m2
02:05 -5.3 °F -9.9 °F 30.29 in SW 1 mph 1 mph 80% 0.00 in 0 W/m2
02:10 -5.3 °F -9.9 °F 30.29 in Calm     80% 0.00 in 0 W/m2
02:15 -5.3 °F -9.9 °F 30.29 in Calm     80% 0.00 in 0 W/m2
02:20 -5.3 °F -9.9 °F 30.30 in Calm     80% 0.00 in 0 W/m2
02:25 -5.2 °F -9.5 °F 30.30 in SW 1 mph 2 mph 81% 0.00 in 0 W/m2
02:30 -5.2 °F -9.5 °F 30.30 in SW 1 mph 1 mph 81% 0.00 in 0 W/m2
02:35 -5.2 °F -9.5 °F 30.30 in SW 1 mph 2 mph 81% 0.00 in 0 W/m2
02:40 -5.2 °F -9.5 °F 30.30 in SW 1 mph 1 mph 81% 0.00 in 0 W/m2
02:45 -5.1 °F -9.4 °F 30.30 in SW 2 mph 2 mph 81% 0.00 in 0 W/m2
02:50 -5.1 °F -9.4 °F 30.30 in SW 1 mph 1 mph 81% 0.00 in 0 W/m2
02:55 -5.1 °F -9.4 °F 30.30 in SW 1 mph 1 mph 81% 0.00 in 0 W/m2
03:00 -5.1 °F -9.4 °F 30.30 in SW 1 mph 1 mph 81% 0.00 in 0 W/m2
03:05 -5.2 °F -9.5 °F 30.31 in Calm   1 mph 81% 0.00 in 0 W/m2
03:10 -5.2 °F -9.5 °F 30.31 in Calm     81% 0.00 in 0 W/m2
03:15 -5.2 °F -9.5 °F 30.31 in Calm   1 mph 81% 0.00 in 0 W/m2
03:20 -5.1 °F -9.4 °F 30.31 in SW 1 mph 1 mph 81% 0.00 in 0 W/m2
03:25 -5.2 °F -9.5 °F 30.31 in Calm   1 mph 81% 0.00 in 0 W/m2
03:30 -5.1 °F -9.4 °F 30.31 in Calm   1 mph 81% 0.00 in 0 W/m2
03:35 -5.1 °F -9.4 °F 30.31 in Calm   1 mph 81% 0.00 in 0 W/m2
03:40 -5.1 °F -9.4 °F 30.31 in Calm     81% 0.00 in 0 W/m2
03:45 -5.1 °F -9.4 °F 30.31 in Calm   1 mph 81% 0.00 in 0 W/m2
03:50 -5.1 °F -9.2 °F 30.31 in Calm   2 mph 82% 0.00 in 0 W/m2
03:55 -5.1 °F -9.2 °F 30.32 in SW 1 mph 2 mph 82% 0.00 in 0 W/m2
04:00 -5.1 °F -9.2 °F 30.32 in SW 1 mph 1 mph 82% 0.00 in 0 W/m2
04:05 -5.1 °F -9.2 °F 30.32 in SW 1 mph 2 mph 82% 0.00 in 0 W/m2
04:10 -5.2 °F -9.5 °F 30.33 in SW 1 mph 1 mph 81% 0.00 in 0 W/m2
04:15 -5.2 °F -9.3 °F 30.33 in Calm   3 mph 82% 0.00 in 0 W/m2
04:20 -5.4 °F -9.7 °F 30.33 in SW 1 mph 1 mph 81% 0.00 in 0 W/m2
04:25 -5.6 °F -9.9 °F 30.34 in SW 1 mph 1 mph 81% 0.00 in 0 W/m2
04:30 -5.9 °F -10.2 °F 30.34 in Calm   1 mph 81% 0.00 in 0 W/m2
04:35 -6 °F -10.3 °F 30.34 in SW 1 mph 1 mph 81% 0.00 in 0 W/m2
04:40 -6.1 °F -10.4 °F 30.35 in SW 1 mph 2 mph 81% 0.00 in 0 W/m2
04:45 -6.2 °F -10.5 °F 30.35 in SW 2 mph 2 mph 81% 0.00 in 0 W/m2
04:50 -6.3 °F -10.6 °F 30.36 in SW 2 mph 3 mph 81% 0.00 in 0 W/m2
04:55 -6.2 °F -10.5 °F 30.36 in SSW 2 mph 3 mph 81% 0.00 in 0 W/m2
05:00 -6.3 °F -10.6 °F 30.37 in SSW 2 mph 2 mph 81% 0.00 in 0 W/m2
05:05 -6.3 °F -10.6 °F 30.37 in SSW 2 mph 3 mph 81% 0.00 in 0 W/m2
05:10 -6.3 °F -10.4 °F 30.37 in SSW 2 mph 2 mph 82% 0.00 in 0 W/m2
05:15 -6.1 °F -10.2 °F 30.38 in SSW 2 mph 3 mph 82% 0.00 in 0 W/m2
05:20 -6.1 °F -10.2 °F 30.38 in SSW 2 mph 2 mph 82% 0.00 in 0 W/m2
05:25 -6 °F -10.1 °F 30.38 in SSW 2 mph 2 mph 82% 0.00 in 0 W/m2
05:30 -5.9 °F -10 °F 30.38 in SSW 2 mph 2 mph 82% 0.00 in 0 W/m2
05:35 -5.8 °F -9.9 °F 30.38 in SSW 1 mph 2 mph 82% 0.00 in 0 W/m2
05:40 -5.7 °F -9.8 °F 30.38 in SSW 1 mph 1 mph 82% 0.00 in 0 W/m2
05:45 -5.7 °F -9.8 °F 30.38 in SSW 1 mph 1 mph 82% 0.00 in 0 W/m2
05:50 -5.7 °F -9.8 °F 30.39 in SSW 1 mph 1 mph 82% 0.00 in 0 W/m2
05:55 -5.8 °F -9.9 °F 30.39 in SSW 1 mph 2 mph 82% 0.00 in 0 W/m2
06:00 -5.9 °F -10 °F 30.39 in SSW 1 mph 1 mph 82% 0.00 in 0 W/m2
06:05 -5.9 °F -10 °F 30.39 in SSW 1 mph 1 mph 82% 0.00 in 0 W/m2
06:10 -6 °F -10.1 °F 30.39 in SSW 1 mph 2 mph 82% 0.00 in 0 W/m2
06:15 -5.9 °F -10 °F 30.40 in SSW 1 mph 2 mph 82% 0.00 in 0 W/m2
06:20 -6 °F -10.1 °F 30.40 in SSW 1 mph 1 mph 82% 0.00 in 0 W/m2
06:25 -6 °F -10.1 °F 30.40 in SSW 1 mph 2 mph 82% 0.00 in 0 W/m2
06:30 -6.1 °F -10.2 °F 30.41 in SSW 2 mph 3 mph 82% 0.00 in 0 W/m2
06:35 -6.1 °F -10.2 °F 30.40 in SSW 2 mph 3 mph 82% 0.00 in 0 W/m2
06:40 -6.1 °F -10.2 °F 30.41 in SSW 2 mph 2 mph 82% 0.00 in 0 W/m2
06:45 -6.1 °F -10.2 °F 30.41 in SSW 2 mph 2 mph 82% 0.00 in 0 W/m2
06:50 -6.1 °F -10.2 °F 30.41 in SSW 1 mph 1 mph 82% 0.00 in 0 W/m2
06:55 -6.2 °F -10.3 °F 30.40 in Calm   1 mph 82% 0.00 in 0 W/m2
07:00 -6.3 °F -10.4 °F 30.40 in Calm     82% 0.00 in 0 W/m2
07:05 -6.3 °F -10.4 °F 30.41 in Calm     82% 0.00 in 0 W/m2
07:10 -6.3 °F -10.4 °F 30.40 in Calm     82% 0.00 in 0 W/m2
07:15 -6.2 °F -10.3 °F 30.40 in Calm     82% 0.00 in 0 W/m2
07:20 -6.3 °F -10.4 °F 30.41 in Calm   1 mph 82% 0.00 in 0 W/m2
07:25 -6.1 °F -9.9 °F 30.41 in SSW 1 mph 2 mph 83% 0.00 in 5 W/m2
07:30 -6.1 °F -9.9 °F 30.42 in SSW 2 mph 2 mph 83% 0.00 in 7 W/m2
07:35 -6.1 °F -9.9 °F 30.42 in SSW 2 mph 2 mph 83% 0.00 in 11 W/m2
07:40 -6 °F -9.8 °F 30.42 in SSW 2 mph 2 mph 83% 0.00 in 19 W/m2
07:45 -5.9 °F -9.7 °F 30.42 in SSW 2 mph 2 mph 83% 0.00 in 26 W/m2
07:50 -5.8 °F -9.6 °F 30.42 in SSW 2 mph 2 mph 83% 0.00 in 37 W/m2
07:55 -5.6 °F -9.4 °F 30.42 in SSW 2 mph 3 mph 83% 0.00 in 47 W/m2
08:00 -5.5 °F -9.3 °F 30.43 in SSW 2 mph 2 mph 83% 0.00 in 56 W/m2
08:05 -5.3 °F -9.1 °F 30.43 in SSW 1 mph 2 mph 83% 0.00 in 53 W/m2
08:10 -5.2 °F -9 °F 30.43 in SSW 1 mph 1 mph 83% 0.00 in 47 W/m2
08:15 -5 °F -8.8 °F 30.43 in SSW 1 mph 2 mph 83% 0.00 in 62 W/m2
08:20 -4.9 °F -8.7 °F 30.44 in South 1 mph 1 mph 83% 0.00 in 54 W/m2
08:25 -4.9 °F -8.7 °F 30.44 in SW 1 mph 1 mph 83% 0.00 in 118 W/m2
08:30 -4.8 °F -8.6 °F 30.44 in SW 1 mph 1 mph 83% 0.00 in 97 W/m2
08:35 -4.6 °F -8.4 °F 30.44 in SW 2 mph 3 mph 83% 0.00 in 98 W/m2
08:40 -4.5 °F -8.4 °F 30.44 in SSW 2 mph 2 mph 83% 0.00 in 84 W/m2
08:45 -4.3 °F -8.2 °F 30.44 in SSW 2 mph 2 mph 83% 0.00 in 125 W/m2
08:50 -4.1 °F -8 °F 30.44 in SSW 1 mph 1 mph 83% 0.00 in 95 W/m2
08:55 -4 °F -7.9 °F 30.45 in SSW 1 mph 1 mph 83% 0.00 in 179 W/m2
09:00 -3.8 °F -7.7 °F 30.44 in SSW 1 mph 1 mph 83% 0.00 in 113 W/m2
09:05 -3.6 °F -7.5 °F 30.45 in SSW 1 mph 1 mph 83% 0.00 in 91 W/m2
09:10 -3.4 °F -7.3 °F 30.45 in SSW 1 mph 1 mph 83% 0.00 in 160 W/m2
09:15 -3.1 °F -7.2 °F 30.45 in SSW 1 mph 1 mph 82% 0.00 in 200 W/m2
09:20 -2.7 °F -6.8 °F 30.45 in SSW 1 mph 1 mph 82% 0.00 in 174 W/m2
09:25 -2.3 °F -6.4 °F 30.45 in SSW 1 mph 3 mph 82% 0.00 in 202 W/m2
09:30 -1.5 °F -5.7 °F 30.45 in SSW 2 mph 3 mph 82% 0.00 in 243 W/m2
09:35 -0.4 °F -4.6 °F 30.45 in SSW 3 mph 3 mph 82% 0.00 in 315 W/m2
09:40 0.6 °F -3.6 °F 30.46 in SSW 2 mph 2 mph 82% 0.00 in 316 W/m2
09:45 2 °F -2.2 °F 30.45 in SSW 2 mph 3 mph 82% 0.00 in 237 W/m2
09:50 3.2 °F -1.6 °F 30.45 in South 2 mph 3 mph 80% 0.00 in 211 W/m2
09:55 4.2 °F -0.6 °F 30.45 in SSW 2 mph 3 mph 80% 0.00 in 287 W/m2
10:00 5.2 °F 0.1 °F 30.45 in SSW 2 mph 3 mph 79% 0.00 in 195 W/m2
10:05 6.2 °F 0.8 °F 30.44 in SSW 2 mph 3 mph 78% 0.00 in 221 W/m2
10:10 6.9 °F 1.2 °F 30.44 in South 2 mph 2 mph 77% 0.00 in 206 W/m2
10:15 7.5 °F 1.5 °F 30.45 in South 2 mph 2 mph 76% 0.00 in 264 W/m2
10:20 8 °F 1.7 °F 30.45 in South 1 mph 3 mph 75% 0.00 in 276 W/m2
10:25 8.4 °F 2.1 °F 30.45 in South 1 mph 3 mph 75% 0.00 in 229 W/m2
10:30 8.8 °F 2.5 °F 30.45 in SSW 1 mph 1 mph 75% 0.00 in 230 W/m2
10:35 9.2 °F 2.9 °F 30.46 in South 1 mph 1 mph 75% 0.00 in 401 W/m2
10:40 9.7 °F 3.4 °F 30.46 in South 1 mph 2 mph 75% 0.00 in 274 W/m2
10:45 9.8 °F 3.2 °F 30.46 in SW 1 mph 2 mph 74% 0.00 in 287 W/m2
10:50 9.8 °F 3.2 °F 30.46 in SW 1 mph 1 mph 74% 0.00 in 253 W/m2
10:55 10.2 °F 3.8 °F 30.46 in SW 1 mph 1 mph 75% 0.00 in 246 W/m2
11:00 10.6 °F 4.2 °F 30.47 in SW 1 mph 1 mph 75% 0.00 in 151 W/m2
11:05 10.9 °F 4.5 °F 30.47 in SE 1 mph 2 mph 75% 0.00 in 260 W/m2
11:10 11.3 °F 5.2 °F 30.47 in South 1 mph 1 mph 76% 0.00 in 148 W/m2
11:15 11.8 °F 5.4 °F 30.47 in ESE 1 mph 2 mph 75% 0.00 in 304 W/m2
11:20 12.3 °F 5.9 °F 30.47 in NE 1 mph 1 mph 75% 0.00 in 508 W/m2
11:25 12.8 °F 6.1 °F 30.47 in SE 1 mph 1 mph 74% 0.00 in 550 W/m2
11:30 13.5 °F 6.8 °F 30.47 in SE 1 mph 1 mph 74% 0.00 in 559 W/m2
11:35 13.9 °F 7.1 °F 30.47 in SSW 2 mph 2 mph 74% 0.00 in 568 W/m2
11:40 14.2 °F 7.4 °F 30.47 in SW 2 mph 2 mph 74% 0.00 in 582 W/m2
11:45 14.5 °F 7.7 °F 30.48 in SSW 2 mph 3 mph 74% 0.00 in 582 W/m2
11:50 14.6 °F 8.1 °F 30.48 in SSW 2 mph 3 mph 75% 0.00 in 591 W/m2
11:55 14.4 °F 8.5 °F 30.48 in SW 3 mph 3 mph 77% 0.00 in 589 W/m2
12:00 14.6 °F 8.7 °F 30.47 in SW 3 mph 3 mph 77% 0.00 in 594 W/m2
12:05 15.1 °F 8.9 °F 30.47 in SW 3 mph 3 mph 76% 0.00 in 599 W/m2
12:10 15.6 °F 9.4 °F 30.47 in SW 3 mph 3 mph 76% 0.00 in 605 W/m2
12:15 15.5 °F 9.9 °F 30.47 in WSW 3 mph 3 mph 78% 0.00 in 606 W/m2
12:20 15.4 °F 10.1 °F 30.47 in WSW 3 mph 3 mph 79% 0.00 in 612 W/m2
12:25 15.5 °F 10.4 °F 30.47 in WSW 3 mph 3 mph 80% 0.00 in 615 W/m2
12:30 15.7 °F 10.6 °F 30.47 in WSW 3 mph 3 mph 80% 0.00 in 617 W/m2
12:35 15.5 °F 9.3 °F 30.47 in SSW 3 mph 3 mph 76% 0.00 in 619 W/m2
12:40 14.8 °F 7.1 °F 30.46 in WSW 3 mph 3 mph 71% 0.00 in 621 W/m2
12:45 14.6 °F 6.6 °F 30.46 in WSW 3 mph 4 mph 70% 0.00 in 622 W/m2
12:50 14.7 °F 6.7 °F 30.46 in WSW 3 mph 5 mph 70% 0.00 in 619 W/m2
12:55 14.9 °F 7.2 °F 30.46 in WSW 4 mph 5 mph 71% 0.00 in 613 W/m2
13:00 15.3 °F 7.9 °F 30.46 in SW 4 mph 4 mph 72% 0.00 in 608 W/m2
13:05 15.6 °F 8.2 °F 30.46 in SW 3 mph 4 mph 72% 0.00 in 621 W/m2
13:10 15.9 °F 8.5 °F 30.46 in WSW 3 mph 3 mph 72% 0.00 in 619 W/m2
13:15 15.7 °F 7.6 °F 30.46 in WSW 3 mph 3 mph 70% 0.00 in 585 W/m2
13:20 16 °F 7.6 °F 30.46 in SSW 3 mph 4 mph 69% 0.00 in 506 W/m2
13:25 16.1 °F 7.7 °F 30.46 in SW 4 mph 5 mph 69% 0.00 in 538 W/m2
13:30 16.3 °F 7.6 °F 30.46 in SW 4 mph 4 mph 68% 0.00 in 555 W/m2
13:35 16.3 °F 7.9 °F 30.46 in WSW 4 mph 4 mph 69% 0.00 in 578 W/m2
13:40 16.7 °F 8 °F 30.46 in West 4 mph 4 mph 68% 0.00 in 631 W/m2
13:45 16.8 °F 8.1 °F 30.46 in WSW 4 mph 4 mph 68% 0.00 in 596 W/m2
13:50 17.1 °F 8.3 °F 30.46 in SW 4 mph 5 mph 68% 0.00 in 610 W/m2
13:55 17.2 °F 8.8 °F 30.46 in SW 4 mph 5 mph 69% 0.00 in 606 W/m2
14:00 17.2 °F 8.8 °F 30.46 in SSW 4 mph 6 mph 69% 0.00 in 554 W/m2
14:05 16.9 °F 8.5 °F 30.46 in SW 4 mph 6 mph 69% 0.00 in 501 W/m2
14:10 17 °F 8.9 °F 30.46 in SW 3 mph 3 mph 70% 0.00 in 541 W/m2
14:15 16.9 °F 9.1 °F 30.46 in SW 3 mph 3 mph 71% 0.00 in 468 W/m2
14:20 16.9 °F 8.8 °F 30.46 in SW 3 mph 3 mph 70% 0.00 in 446 W/m2
14:25 16.6 °F 8.8 °F 30.46 in SW 3 mph 5 mph 71% 0.00 in 438 W/m2
14:30 16.7 °F 9.2 °F 30.46 in SW 3 mph 5 mph 72% 0.00 in 506 W/m2
14:35 17.2 °F 8.8 °F 30.46 in SW 4 mph 5 mph 69% 0.00 in 489 W/m2
14:40 17.3 °F 9.2 °F 30.46 in SSW 5 mph 5 mph 70% 0.00 in 431 W/m2
14:45 17.3 °F 7.9 °F 30.46 in SSW 5 mph 5 mph 66% 0.00 in 403 W/m2
14:50 17.3 °F 8.2 °F 30.45 in SSW 5 mph 5 mph 67% 0.00 in 385 W/m2
14:55 17.5 °F 8.4 °F 30.45 in SSW 5 mph 5 mph 67% 0.00 in 378 W/m2
15:00 17.5 °F 8.1 °F 30.45 in SSW 4 mph 5 mph 66% 0.00 in 396 W/m2
15:05 17.6 °F 8.2 °F 30.45 in South 5 mph 5 mph 66% 0.00 in 325 W/m2
15:10 17.4 °F 8.3 °F 30.45 in South 4 mph 4 mph 67% 0.00 in 334 W/m2
15:15 17.5 °F 8.4 °F 30.44 in SSW 4 mph 4 mph 67% 0.00 in 309 W/m2
15:20 17.5 °F 8.4 °F 30.44 in SSW 4 mph 4 mph 67% 0.00 in 288 W/m2
15:25 17.3 °F 8.2 °F 30.44 in South 4 mph 4 mph 67% 0.00 in 285 W/m2
15:30 17.4 °F 8.3 °F 30.44 in South 4 mph 4 mph 67% 0.00 in 278 W/m2
15:35 16.5 °F 9.4 °F 30.45 in SE 3 mph 4 mph 73% 0.00 in 278 W/m2
15:40 16.4 °F 9.6 °F 30.45 in NNW 1 mph 1 mph 74% 0.00 in 260 W/m2
15:45 16.6 °F 9.4 °F 30.45 in WNW 2 mph 2 mph 73% 0.00 in 253 W/m2
15:50 16.5 °F 9.4 °F 30.44 in ESE 2 mph 2 mph 73% 0.00 in 206 W/m2
15:55 16.4 °F 9.3 °F 30.44 in North 2 mph 2 mph 73% 0.00 in 183 W/m2
16:00 16.2 °F 9.1 °F 30.44 in WSW 2 mph 4 mph 73% 0.00 in 183 W/m2
16:05 16 °F 8.9 °F 30.44 in SW 1 mph 4 mph 73% 0.00 in 200 W/m2
16:10 16 °F 9.2 °F 30.44 in SSW 1 mph 1 mph 74% 0.00 in 202 W/m2
16:15 16.1 °F 9.3 °F 30.44 in South 1 mph 2 mph 74% 0.00 in 204 W/m2
16:20 16.3 °F 9.8 °F 30.44 in NW 1 mph 2 mph 75% 0.00 in 202 W/m2
16:25 16.3 °F 9.8 °F 30.44 in SSW 2 mph 3 mph 75% 0.00 in 207 W/m2
16:30 16.4 °F 9.6 °F 30.44 in South 2 mph 2 mph 74% 0.00 in 213 W/m2
16:35 16.3 °F 9.5 °F 30.44 in SSE 1 mph 2 mph 74% 0.00 in 206 W/m2
16:40 16.2 °F 9.4 °F 30.43 in SSW 1 mph 1 mph 74% 0.00 in 251 W/m2
16:45 16 °F 9.2 °F 30.43 in SSW 1 mph 1 mph 74% 0.00 in 239 W/m2
16:50 15.8 °F 9.3 °F 30.43 in South 1 mph 2 mph 75% 0.00 in 230 W/m2
16:55 15.4 °F 8.9 °F 30.43 in South 2 mph 2 mph 75% 0.00 in 218 W/m2
17:00 14.7 °F 8.2 °F 30.43 in South 2 mph 2 mph 75% 0.00 in 169 W/m2
17:05 13.9 °F 7.4 °F 30.43 in South 2 mph 2 mph 75% 0.00 in 120 W/m2
17:10 13.3 °F 6.6 °F 30.43 in South 2 mph 2 mph 74% 0.00 in 56 W/m2
17:15 13.1 °F 6.1 °F 30.42 in South 2 mph 2 mph 73% 0.00 in 47 W/m2
17:20 12.6 °F 5.6 °F 30.43 in South 2 mph 2 mph 73% 0.00 in 47 W/m2
17:25 11.9 °F 5.2 °F 30.43 in South 2 mph 2 mph 74% 0.00 in 47 W/m2
17:30 11.5 °F 4.8 °F 30.43 in South 1 mph 1 mph 74% 0.00 in 46 W/m2
17:35 11.2 °F 4.5 °F 30.44 in SW 2 mph 2 mph 74% 0.00 in 39 W/m2
17:40 11.2 °F 4.5 °F 30.44 in SSE 2 mph 2 mph 74% 0.00 in 33 W/m2
17:45 11.3 °F 4.9 °F 30.44 in South 2 mph 2 mph 75% 0.00 in 26 W/m2
17:50 11.3 °F 4.9 °F 30.44 in SSE 1 mph 1 mph 75% 0.00 in 18 W/m2
17:55 11.3 °F 5.2 °F 30.44 in Calm   1 mph 76% 0.00 in 11 W/m2
18:00 11.3 °F 5.2 °F 30.44 in SSW 1 mph 2 mph 76% 0.00 in 9 W/m2
18:05 11.2 °F 5.1 °F 30.44 in SSW 1 mph 2 mph 76% 0.00 in 5 W/m2
18:10 11 °F 4.6 °F 30.45 in SSW 1 mph 2 mph 75% 0.00 in 5 W/m2
18:15 10.9 °F 4.5 °F 30.45 in South 1 mph 2 mph 75% 0.00 in 0 W/m2
18:20 10.8 °F 4.4 °F 30.45 in South 2 mph 3 mph 75% 0.00 in 0 W/m2
18:25 10.7 °F 4.6 °F 30.45 in SSW 2 mph 4 mph 76% 0.00 in 0 W/m2
18:30 10.8 °F 4.7 °F 30.45 in SSW 2 mph 2 mph 76% 0.00 in 0 W/m2
18:35 10.7 °F 4.9 °F 30.45 in SSW 1 mph 2 mph 77% 0.00 in 0 W/m2
18:40 10.7 °F 4.9 °F 30.45 in Calm     77% 0.00 in 0 W/m2
18:45 10.7 °F 5.2 °F 30.45 in Calm     78% 0.00 in 0 W/m2
18:50 10.7 °F 5.2 °F 30.45 in Calm     78% 0.00 in 0 W/m2
18:55 10.7 °F 5.2 °F 30.45 in Calm     78% 0.00 in 0 W/m2
19:00 10.6 °F 5.4 °F 30.45 in Calm     79% 0.00 in 0 W/m2
19:05 10.6 °F 5.4 °F 30.45 in Calm     79% 0.00 in 0 W/m2
19:10 10.5 °F 5.3 °F 30.45 in Calm     79% 0.00 in 0 W/m2
19:15 10.5 °F 5.3 °F 30.44 in Calm     79% 0.00 in 0 W/m2
19:20 10.5 °F 5.3 °F 30.44 in Calm     79% 0.00 in 0 W/m2
19:25 10.6 °F 5.6 °F 30.45 in Calm     80% 0.00 in 0 W/m2
19:30 10.5 °F 5.3 °F 30.46 in Calm     79% 0.00 in 0 W/m2
19:35 10.5 °F 5.3 °F 30.47 in Calm     79% 0.00 in 0 W/m2
19:40 10.5 °F 5.3 °F 30.47 in Calm     79% 0.00 in 0 W/m2
19:45 10.4 °F 5.2 °F 30.46 in Calm     79% 0.00 in 0 W/m2
19:50 10.5 °F 5.3 °F 30.47 in Calm     79% 0.00 in 0 W/m2
19:55 10.4 °F 5.2 °F 30.46 in Calm     79% 0.00 in 0 W/m2
20:00 10.4 °F 5.2 °F 30.46 in Calm     79% 0.00 in 0 W/m2
20:05 10.4 °F 5.2 °F 30.46 in Calm   1 mph 79% 0.00 in 0 W/m2
20:10 10.3 °F 5.1 °F 30.45 in SSW 1 mph 2 mph 79% 0.00 in 0 W/m2
20:15 10.2 °F 5 °F 30.46 in SSW 1 mph 2 mph 79% 0.00 in 0 W/m2
20:20 10.1 °F 4.6 °F 30.46 in SSW 1 mph 1 mph 78% 0.00 in 0 W/m2
20:25 10 °F 4.5 °F 30.46 in Calm   1 mph 78% 0.00 in 0 W/m2
20:30 9.8 °F 4.3 °F 30.45 in Calm     78% 0.00 in 0 W/m2
20:35 9.6 °F 4.1 °F 30.45 in SSW 1 mph 1 mph 78% 0.00 in 0 W/m2
20:40 9.4 °F 3.9 °F 30.45 in SSW 1 mph 1 mph 78% 0.00 in 0 W/m2
20:45 9.2 °F 3.4 °F 30.45 in Calm   1 mph 77% 0.00 in 0 W/m2
20:50 8.9 °F 2.9 °F 30.46 in Calm   1 mph 76% 0.00 in 0 W/m2
20:55 8.8 °F 3.1 °F 30.47 in Calm   1 mph 77% 0.00 in 0 W/m2
21:00 8.6 °F 2.9 °F 30.48 in Calm     77% 0.00 in 0 W/m2
21:05 8.5 °F 2.8 °F 30.48 in Calm     77% 0.00 in 0 W/m2
21:10 8.3 °F 2.6 °F 30.48 in Calm     77% 0.00 in 0 W/m2
21:15 8.2 °F 2.5 °F 30.48 in Calm     77% 0.00 in 0 W/m2
21:20 8 °F 2.3 °F 30.48 in Calm     77% 0.00 in 0 W/m2
21:25 7.9 °F 2.2 °F 30.48 in Calm     77% 0.00 in 0 W/m2
21:30 7.8 °F 2.1 °F 30.48 in Calm   1 mph 77% 0.00 in 0 W/m2
21:35 7.7 °F 2.3 °F 30.48 in Calm   1 mph 78% 0.00 in 0 W/m2
21:40 7.6 °F 2.2 °F 30.47 in Calm     78% 0.00 in 0 W/m2
21:45 7.6 °F 2.4 °F 30.48 in Calm     79% 0.00 in 0 W/m2
21:50 7.7 °F 2.8 °F 30.48 in Calm     80% 0.00 in 0 W/m2
21:55 7.8 °F 2.9 °F 30.47 in Calm     80% 0.00 in 0 W/m2
22:00 8 °F 3.4 °F 30.48 in Calm     81% 0.00 in 0 W/m2
22:05 8.1 °F 3.5 °F 30.48 in Calm     81% 0.00 in 0 W/m2
22:10 8.3 °F 3.9 °F 30.49 in Calm     82% 0.00 in 0 W/m2
22:15 8.5 °F 4.1 °F 30.50 in Calm     82% 0.00 in 0 W/m2
22:20 8.7 °F 4.3 °F 30.50 in Calm     82% 0.00 in 0 W/m2
22:25 9 °F 4.6 °F 30.49 in Calm     82% 0.00 in 0 W/m2
22:30 9.4 °F 5 °F 30.49 in Calm     82% 0.00 in 0 W/m2
22:35 9.6 °F 5.2 °F 30.48 in Calm   1 mph 82% 0.00 in 0 W/m2
22:40 9.8 °F 5.4 °F 30.48 in Calm     82% 0.00 in 0 W/m2
22:45 9.9 °F 5.5 °F 30.48 in Calm     82% 0.00 in 0 W/m2
22:50 9.9 °F 5.5 °F 30.48 in Calm     82% 0.00 in 0 W/m2
22:55 9.9 °F 5.2 °F 30.47 in Calm     81% 0.00 in 0 W/m2
23:00 9.8 °F 5.1 °F 30.47 in Calm     81% 0.00 in 0 W/m2
23:05 9.8 °F 5.1 °F 30.47 in Calm     81% 0.00 in 0 W/m2
23:10 9.8 °F 5.1 °F 30.47 in Calm   1 mph 81% 0.00 in 0 W/m2
23:15 9.8 °F 5.1 °F 30.48 in Calm   1 mph 81% 0.00 in 0 W/m2
23:20 9.9 °F 5.2 °F 30.48 in Calm     81% 0.00 in 0 W/m2
23:25 10 °F 5.6 °F 30.48 in Calm     82% 0.00 in 0 W/m2
23:30 10.1 °F 5.7 °F 30.48 in Calm     82% 0.00 in 0 W/m2
23:35 10.1 °F 5.7 °F 30.48 in Calm     82% 0.00 in 0 W/m2
23:40 10.1 °F 5.7 °F 30.48 in Calm   1 mph 82% 0.00 in 0 W/m2
23:45 10.1 °F 5.7 °F 30.49 in Calm   1 mph 82% 0.00 in 0 W/m2
23:50 10.1 °F 5.7 °F 30.49 in Calm     82% 0.00 in 0 W/m2
23:55 10.1 °F 5.7 °F 30.48 in Calm     82% 0.00 in 0 W/m2
Sand Point, Michigan, USA
Compliments of Weather Underground - 2 mb